Time;durP1;ratioP1;P1;durP2;ratioP2;P2;SDS_P1;SDS_P2;PMS_P1;PMS_P2;Temp;Humidity;BMP_temperature;BMP_pressure;BME280_temperature;BME280_humidity;BME280_pressure;Samples;Min_cycle;Max_cycle;Signal;HPM_P1;HPM_P2
2022/03/10 00:02:09;;;;;;;18.88;11.15;;;3.50;99.90;;;;;;5033492;28;20043;-48
2022/03/10 00:04:35;;;;;;;19.52;12.45;;;3.50;99.90;;;;;;5028920;28;20048;-49
2022/03/10 00:07:04;;;;;;;18.55;11.68;;;3.50;99.90;;;;;;5033376;28;20041;-48
2022/03/10 00:09:33;;;;;;;17.25;10.70;;;3.40;99.90;;;;;;5033458;28;20033;-49
2022/03/10 00:12:02;;;;;;;22.02;12.02;;;3.40;99.90;;;;;;5033372;28;20071;-51
2022/03/10 00:14:29;;;;;;;17.67;11.23;;;3.40;99.90;;;;;;5033260;28;20137;-49
2022/03/10 00:16:55;;;;;;;19.02;11.60;;;3.40;99.90;;;;;;5033052;28;20057;-49
2022/03/10 00:19:20;;;;;;;20.20;11.48;;;3.40;99.90;;;;;;5033184;28;20037;-52
2022/03/10 00:21:47;;;;;;;18.88;11.60;;;3.50;99.90;;;;;;5033128;28;20045;-51
2022/03/10 00:24:23;;;;;;;19.88;11.88;;;3.40;99.90;;;;;;5032820;28;20129;-52
2022/03/10 00:26:49;;;;;;;21.08;12.68;;;3.40;99.90;;;;;;5032116;28;20057;-51
2022/03/10 00:29:15;;;;;;;17.33;11.07;;;3.40;99.90;;;;;;5032998;28;20053;-50
2022/03/10 00:31:41;;;;;;;23.30;11.23;;;3.40;99.90;;;;;;5032940;28;20038;-49
2022/03/10 00:34:07;;;;;;;19.08;12.10;;;3.40;99.90;;;;;;5032771;28;20037;-49
2022/03/10 00:36:33;;;;;;;18.63;11.82;;;3.30;99.90;;;;;;5032800;28;20052;-47
2022/03/10 00:38:59;;;;;;;19.38;11.23;;;3.30;99.90;;;;;;5032931;28;20445;-47
2022/03/10 00:41:24;;;;;;;23.77;12.93;;;3.30;99.90;;;;;;5033005;28;20394;-47
2022/03/10 00:43:50;;;;;;;20.17;11.38;;;3.30;99.90;;;;;;5032889;28;20053;-48
2022/03/10 00:46:16;;;;;;;18.63;11.45;;;3.20;99.90;;;;;;5032782;28;20045;-50
2022/03/10 00:48:41;;;;;;;23.05;11.65;;;3.20;99.90;;;;;;5032514;28;20044;-52
2022/03/10 00:51:07;;;;;;;18.83;10.43;;;3.10;99.90;;;;;;5031574;28;20117;-47
2022/03/10 00:53:34;;;;;;;18.83;11.52;;;3.10;99.90;;;;;;5032564;28;20131;-49
2022/03/10 00:56:00;;;;;;;20.27;12.07;;;3.20;99.90;;;;;;5032614;28;20095;-48
2022/03/10 00:58:25;;;;;;;19.48;11.30;;;3.20;99.90;;;;;;5032280;28;20041;-51
2022/03/10 01:00:51;;;;;;;19.48;12.05;;;3.20;99.90;;;;;;5032589;28;20073;-51
2022/03/10 01:03:18;;;;;;;21.90;11.82;;;3.20;99.90;;;;;;5032277;28;20481;-51
2022/03/10 01:05:44;;;;;;;19.77;12.50;;;3.20;99.90;;;;;;5028184;28;20099;-48
2022/03/10 01:08:10;;;;;;;22.15;11.98;;;3.10;99.90;;;;;;5031205;28;20440;-47
2022/03/10 01:10:36;;;;;;;19.35;11.63;;;3.10;99.90;;;;;;5032503;28;20045;-48
2022/03/10 01:13:02;;;;;;;22.23;11.95;;;3.10;99.90;;;;;;5032281;28;20042;-51
2022/03/10 01:15:29;;;;;;;20.50;11.90;;;3.10;99.90;;;;;;5014637;28;20092;-48
2022/03/10 01:17:55;;;;;;;19.88;11.40;;;3.20;99.90;;;;;;5032067;28;20073;-47
2022/03/10 01:20:23;;;;;;;18.45;11.38;;;3.10;99.90;;;;;;5014369;28;20080;-47
2022/03/10 01:22:50;;;;;;;20.88;10.80;;;3.20;99.90;;;;;;5030742;28;20513;-47
2022/03/10 01:25:18;;;;;;;20.38;12.00;;;3.10;99.90;;;;;;5014384;28;20128;-51
2022/03/10 01:27:43;;;;;;;20.65;11.20;;;3.20;99.90;;;;;;5031855;28;20534;-50
2022/03/10 01:30:10;;;;;;;17.13;10.88;;;3.20;99.90;;;;;;5030748;28;20117;-50
2022/03/10 01:32:36;;;;;;;22.73;11.82;;;3.10;99.90;;;;;;5031966;28;20065;-52
2022/03/10 01:35:03;;;;;;;18.80;11.05;;;3.00;99.90;;;;;;5032065;28;20088;-49
2022/03/10 01:37:29;;;;;;;18.02;10.57;;;3.00;99.90;;;;;;5033338;28;20041;-50
2022/03/10 01:39:55;;;;;;;18.15;10.57;;;3.00;99.90;;;;;;5036102;28;20048;-49
2022/03/10 01:42:22;;;;;;;18.80;11.45;;;2.90;99.90;;;;;;5036133;28;20045;-47
2022/03/10 01:44:53;;;;;;;19.58;11.15;;;2.90;99.90;;;;;;5035901;28;20394;-48
2022/03/10 01:47:19;;;;;;;17.58;11.70;;;2.90;99.90;;;;;;5035781;28;20564;-48
2022/03/10 01:49:44;;;;;;;18.05;10.70;;;2.90;99.90;;;;;;5036109;28;20179;-51
2022/03/10 01:52:10;;;;;;;17.90;10.73;;;2.90;99.90;;;;;;5036129;28;20124;-53
2022/03/10 01:54:36;;;;;;;18.88;10.55;;;2.90;99.90;;;;;;5017900;28;20052;-48
2022/03/10 01:57:03;;;;;;;19.42;11.52;;;2.80;99.90;;;;;;5035784;28;20037;-51
2022/03/10 01:59:29;;;;;;;18.92;11.05;;;2.80;99.90;;;;;;5035600;28;20071;-52
2022/03/10 02:01:55;;;;;;;21.30;12.77;;;2.80;99.90;;;;;;5035850;28;20049;-53
2022/03/10 02:04:21;;;;;;;22.73;12.07;;;2.80;99.90;;;;;;5031467;28;20037;-49
2022/03/10 02:06:48;;;;;;;19.95;12.30;;;2.80;99.90;;;;;;5035745;28;20056;-50
2022/03/10 02:11:58;;;;;;;19.70;11.43;;;2.90;99.90;;;;;;5035774;28;20056;-48
2022/03/10 02:17:20;;;;;;;19.80;12.07;;;2.80;99.90;;;;;;5035273;28;20129;-53
2022/03/10 02:19:50;;;;;;;18.33;11.00;;;2.80;99.90;;;;;;5035602;28;20083;-49
2022/03/10 02:22:16;;;;;;;19.98;10.95;;;2.80;99.90;;;;;;5035092;28;20057;-51
2022/03/10 02:24:43;;;;;;;17.83;10.88;;;2.80;99.90;;;;;;5035427;28;20099;-52
2022/03/10 02:27:14;;;;;;;19.13;11.18;;;2.80;99.90;;;;;;5035234;28;20394;-48
2022/03/10 02:29:43;;;;;;;21.48;12.13;;;2.80;99.90;;;;;;5035350;28;20041;-51
2022/03/10 02:32:10;;;;;;;21.02;11.52;;;2.80;99.90;;;;;;5035062;28;20046;-49
2022/03/10 02:34:37;;;;;;;19.65;12.13;;;2.80;99.90;;;;;;5035324;28;20116;-48
2022/03/10 02:37:03;;;;;;;19.42;11.93;;;2.80;99.90;;;;;;5034959;28;20106;-49
2022/03/10 02:39:29;;;;;;;19.10;11.48;;;2.80;99.90;;;;;;5035176;28;20493;-46
2022/03/10 02:41:55;;;;;;;20.20;11.35;;;2.70;99.90;;;;;;5035080;28;20056;-50
2022/03/10 02:44:21;;;;;;;19.63;10.50;;;2.70;99.90;;;;;;5034875;28;20038;-51
2022/03/10 02:46:47;;;;;;;23.48;11.82;;;2.70;99.90;;;;;;5034457;28;20394;-50
2022/03/10 02:49:13;;;;;;;23.08;12.52;;;2.70;99.90;;;;;;5034123;28;20048;-52
2022/03/10 02:51:38;;;;;;;19.00;11.40;;;2.60;99.90;;;;;;5034815;28;20053;-48
2022/03/10 02:54:04;;;;;;;19.38;12.25;;;2.60;99.90;;;;;;5034870;28;20037;-47
2022/03/10 02:56:30;;;;;;;22.33;12.10;;;2.50;99.90;;;;;;5034461;28;20049;-46
2022/03/10 02:58:55;;;;;;;20.38;11.30;;;2.50;99.90;;;;;;5034844;28;20042;-48
2022/03/10 03:01:21;;;;;;;24.20;12.10;;;2.40;99.90;;;;;;5034669;28;20397;-51
2022/03/10 03:03:47;;;;;;;19.40;11.43;;;2.50;99.90;;;;;;5031197;28;20052;-46
2022/03/10 03:06:12;;;;;;;21.58;11.68;;;2.40;99.90;;;;;;5033813;28;20099;-46
2022/03/10 03:08:38;;;;;;;22.42;12.20;;;2.40;99.90;;;;;;5034458;28;20124;-48
2022/03/10 03:11:03;;;;;;;19.38;11.75;;;2.40;99.90;;;;;;5016697;28;20045;-48
2022/03/10 03:13:29;;;;;;;19.17;11.60;;;2.40;99.90;;;;;;5016739;28;20045;-48
2022/03/10 03:15:55;;;;;;;22.05;12.05;;;2.30;99.90;;;;;;5034532;28;20045;-51
2022/03/10 03:18:20;;;;;;;21.33;12.27;;;2.30;99.90;;;;;;5034295;28;20124;-50
2022/03/10 03:20:46;;;;;;;20.63;12.63;;;2.20;99.90;;;;;;5034211;28;20044;-51
2022/03/10 03:23:12;;;;;;;21.23;12.07;;;2.20;99.90;;;;;;5034121;28;20068;-50
2022/03/10 03:25:37;;;;;;;18.80;11.40;;;2.20;99.90;;;;;;5034133;28;20030;-50
2022/03/10 03:28:03;;;;;;;21.70;12.65;;;2.20;99.90;;;;;;5034060;28;20040;-47
2022/03/10 03:30:29;;;;;;;22.33;13.15;;;2.20;99.90;;;;;;5034311;28;20029;-48
2022/03/10 03:32:54;;;;;;;20.30;12.30;;;2.20;99.90;;;;;;5034132;28;20129;-47
2022/03/10 03:35:20;;;;;;;20.02;11.90;;;2.10;99.90;;;;;;5033765;28;20114;-50
2022/03/10 03:37:46;;;;;;;24.67;12.32;;;2.10;99.90;;;;;;5034225;28;20474;-47
2022/03/10 03:40:12;;;;;;;22.25;12.77;;;2.10;99.90;;;;;;5033803;28;20395;-48
2022/03/10 03:42:38;;;;;;;21.77;11.63;;;2.10;99.90;;;;;;5033735;28;20808;-49
2022/03/10 03:45:05;;;;;;;19.63;12.25;;;2.10;99.90;;;;;;5033635;28;20116;-51
2022/03/10 03:47:31;;;;;;;23.00;12.50;;;2.00;99.90;;;;;;5015871;28;20060;-50
2022/03/10 03:49:56;;;;;;;21.55;12.23;;;2.10;99.90;;;;;;5033506;28;20030;-50
2022/03/10 03:52:22;;;;;;;19.58;12.43;;;2.10;99.90;;;;;;5033783;28;20053;-47
2022/03/10 03:54:48;;;;;;;19.30;11.50;;;2.10;99.90;;;;;;5033752;28;20049;-51
2022/03/10 03:57:14;;;;;;;20.23;11.82;;;2.10;99.90;;;;;;5032335;28;20048;-50
2022/03/10 03:59:39;;;;;;;22.92;13.52;;;2.20;99.90;;;;;;5016137;28;20073;-51
2022/03/10 04:02:05;;;;;;;20.70;11.80;;;2.20;99.90;;;;;;5032376;28;20041;-47
2022/03/10 04:04:31;;;;;;;19.65;12.02;;;2.20;99.90;;;;;;5029304;28;20037;-49
2022/03/10 04:06:57;;;;;;;22.75;12.88;;;2.20;99.90;;;;;;5033563;28;20044;-48
2022/03/10 04:09:23;;;;;;;19.42;11.90;;;2.20;99.90;;;;;;5032069;28;20037;-51
2022/03/10 04:11:49;;;;;;;21.35;11.80;;;2.10;99.90;;;;;;5033260;28;20039;-47
2022/03/10 04:14:15;;;;;;;20.33;12.30;;;2.20;99.90;;;;;;5033356;28;20099;-50
2022/03/10 04:16:41;;;;;;;24.63;11.82;;;2.20;99.90;;;;;;5033034;28;20049;-47
2022/03/10 04:19:06;;;;;;;19.63;11.80;;;2.20;99.90;;;;;;5033295;28;20367;-47
2022/03/10 04:21:38;;;;;;;23.20;12.77;;;2.20;99.90;;;;;;5089813;27;20441;-52
2022/03/10 04:24:04;;;;;;;19.27;11.30;;;2.20;99.90;;;;;;5089798;28;20048;-49
2022/03/10 04:26:30;;;;;;;18.58;11.90;;;2.20;99.90;;;;;;5090077;28;20036;-50
2022/03/10 04:28:56;;;;;;;20.83;12.45;;;2.20;99.90;;;;;;5090050;28;20450;-49
2022/03/10 04:31:23;;;;;;;25.15;13.65;;;2.20;99.90;;;;;;5088580;28;20082;-51
2022/03/10 04:33:49;;;;;;;18.73;11.25;;;2.20;99.90;;;;;;5088163;28;20097;-52
2022/03/10 04:36:14;;;;;;;21.30;11.57;;;2.20;99.90;;;;;;5089625;28;20040;-50
2022/03/10 04:38:40;;;;;;;20.92;11.90;;;2.20;99.90;;;;;;5089726;28;20076;-48
2022/03/10 04:41:06;;;;;;;21.38;12.63;;;2.20;99.90;;;;;;5089443;28;20036;-51
2022/03/10 04:43:31;;;;;;;20.10;12.50;;;2.10;99.90;;;;;;5089405;28;20543;-48
2022/03/10 04:45:59;;;;;;;22.83;12.30;;;2.20;99.90;;;;;;5088071;28;20070;-51
2022/03/10 04:48:25;;;;;;;19.45;11.75;;;2.10;99.90;;;;;;5088011;28;20040;-51
2022/03/10 04:50:51;;;;;;;24.73;12.95;;;2.10;99.90;;;;;;5087850;28;20044;-53
2022/03/10 04:53:17;;;;;;;22.23;12.63;;;2.10;99.90;;;;;;5089117;28;20040;-53
2022/03/10 04:55:42;;;;;;;20.60;11.88;;;2.10;99.90;;;;;;5089305;28;20040;-52
2022/03/10 04:58:08;;;;;;;20.10;12.90;;;2.10;99.90;;;;;;5089148;28;20545;-49
2022/03/10 05:00:34;;;;;;;19.98;12.43;;;2.00;99.90;;;;;;5088948;28;20055;-49
2022/03/10 05:03:00;;;;;;;20.38;12.05;;;2.10;99.90;;;;;;5088953;28;20471;-48
2022/03/10 05:05:26;;;;;;;21.73;13.30;;;2.00;99.90;;;;;;5075808;28;20033;-48
2022/03/10 05:07:52;;;;;;;23.85;11.43;;;2.10;99.90;;;;;;5067431;28;20041;-49
2022/03/10 05:10:18;;;;;;;20.63;12.43;;;2.10;99.90;;;;;;5068858;28;20045;-49
2022/03/10 05:12:52;;;;;;;20.13;12.10;;;2.00;99.90;;;;;;5068803;28;20045;-52
2022/03/10 05:15:31;;;;;;;19.98;13.10;;;2.00;99.90;;;;;;5068712;28;20041;-52
2022/03/10 05:17:57;;;;;;;21.05;11.88;;;1.90;99.90;;;;;;5068602;28;20472;-49
2022/03/10 05:20:25;;;;;;;18.67;11.20;;;2.00;99.90;;;;;;5068111;28;20094;-49
2022/03/10 05:23:01;;;;;;;18.17;11.50;;;2.00;99.90;;;;;;5068422;28;20036;-50
2022/03/10 05:25:39;;;;;;;22.48;12.65;;;1.90;99.90;;;;;;5068259;28;20481;-48
2022/03/10 05:28:15;;;;;;;22.80;12.00;;;1.90;99.90;;;;;;5068447;28;20041;-48
2022/03/10 05:30:43;;;;;;;17.63;11.00;;;1.90;99.90;;;;;;5067062;28;20378;-47
2022/03/10 05:33:09;;;;;;;18.63;11.57;;;1.90;99.90;;;;;;5054623;28;20052;-49
2022/03/10 05:35:35;;;;;;;23.30;11.25;;;1.90;99.90;;;;;;5054936;28;20029;-48
2022/03/10 05:38:02;;;;;;;21.05;11.52;;;2.00;99.90;;;;;;5055122;28;20515;-50
2022/03/10 05:40:28;;;;;;;18.55;10.73;;;2.00;99.90;;;;;;5054721;28;20152;-50
2022/03/10 05:42:55;;;;;;;19.48;11.63;;;2.00;99.90;;;;;;5054755;28;20044;-47
2022/03/10 05:45:21;;;;;;;22.55;11.10;;;2.00;99.90;;;;;;5053851;28;20076;-48
2022/03/10 05:47:51;;;;;;;21.55;12.35;;;1.90;99.90;;;;;;5054769;28;20037;-47
2022/03/10 05:50:18;;;;;;;21.30;11.48;;;1.90;99.90;;;;;;5053572;28;20047;-49
2022/03/10 05:52:45;;;;;;;18.92;11.68;;;1.90;99.90;;;;;;5054694;28;20079;-48
2022/03/10 05:55:12;;;;;;;18.77;11.25;;;1.90;99.90;;;;;;5036775;28;20051;-47
2022/03/10 05:57:38;;;;;;;18.58;11.05;;;1.90;99.90;;;;;;5054440;28;20055;-47
2022/03/10 06:00:05;;;;;;;19.85;10.68;;;2.00;99.90;;;;;;5054532;28;20124;-48
2022/03/10 06:02:31;;;;;;;18.13;11.02;;;1.90;99.90;;;;;;5053008;28;20045;-48
2022/03/10 06:05:00;;;;;;;22.45;12.52;;;1.90;99.90;;;;;;5058778;28;20033;-50
2022/03/10 06:07:27;;;;;;;19.42;11.18;;;1.90;99.90;;;;;;5054279;28;20041;-48
2022/03/10 06:09:54;;;;;;;20.90;11.63;;;1.90;99.90;;;;;;5054557;28;20381;-52
2022/03/10 06:12:24;;;;;;;19.55;11.32;;;1.90;99.90;;;;;;5054460;28;20096;-49
2022/03/10 06:14:57;;;;;;;19.58;11.43;;;2.00;99.90;;;;;;5054391;28;20084;-52
2022/03/10 06:17:23;;;;;;;21.70;11.32;;;1.90;99.90;;;;;;5054155;28;20048;-51
2022/03/10 06:19:49;;;;;;;17.52;10.23;;;2.00;99.90;;;;;;5053814;28;20053;-50
2022/03/10 06:22:20;;;;;;;18.27;11.00;;;2.00;99.90;;;;;;5053929;28;20045;-52
2022/03/10 06:24:46;;;;;;;19.00;11.00;;;2.00;99.90;;;;;;5053973;28;20040;-51
2022/03/10 06:27:16;;;;;;;20.48;11.60;;;2.10;99.90;;;;;;5053939;28;20123;-52
2022/03/10 06:29:42;;;;;;;21.48;11.85;;;2.10;99.90;;;;;;5053854;28;20447;-50
2022/03/10 06:32:08;;;;;;;20.33;11.65;;;2.10;99.90;;;;;;5054076;28;20036;-52
2022/03/10 06:34:34;;;;;;;20.35;11.35;;;2.10;99.90;;;;;;5053671;28;20048;-49
2022/03/10 06:36:59;;;;;;;20.75;11.13;;;2.10;99.90;;;;;;5053806;28;20496;-50
2022/03/10 06:39:26;;;;;;;21.65;11.30;;;2.10;99.90;;;;;;5052282;28;20120;-48
2022/03/10 06:41:52;;;;;;;19.70;11.65;;;2.20;99.90;;;;;;5053829;28;20040;-51
2022/03/10 06:44:17;;;;;;;19.35;10.95;;;2.20;99.90;;;;;;5052896;28;20385;-48
2022/03/10 06:46:43;;;;;;;18.15;10.90;;;2.10;99.90;;;;;;5053584;28;20091;-52
2022/03/10 06:49:09;;;;;;;19.70;11.70;;;2.10;99.90;;;;;;5053447;28;20041;-47
2022/03/10 06:51:35;;;;;;;18.52;11.63;;;2.10;99.90;;;;;;5053511;28;20044;-47
2022/03/10 06:54:00;;;;;;;20.60;12.30;;;2.20;99.90;;;;;;5053352;28;20401;-47
2022/03/10 06:56:26;;;;;;;18.40;11.02;;;2.20;99.90;;;;;;5052022;28;20045;-48
2022/03/10 06:58:52;;;;;;;19.30;10.77;;;2.20;99.90;;;;;;5052365;28;20037;-49
2022/03/10 07:01:19;;;;;;;19.60;10.88;;;2.20;99.90;;;;;;5053194;28;20048;-48
2022/03/10 07:03:45;;;;;;;17.58;10.73;;;2.20;99.90;;;;;;5056305;28;20102;-53
2022/03/10 07:06:11;;;;;;;19.92;11.13;;;2.30;99.90;;;;;;5053815;28;20058;-52
2022/03/10 07:08:36;;;;;;;19.73;11.35;;;2.30;99.90;;;;;;5053052;28;20033;-48
2022/03/10 07:11:02;;;;;;;21.48;11.00;;;2.40;99.90;;;;;;5053081;28;20041;-50
2022/03/10 07:13:28;;;;;;;18.13;11.68;;;2.50;99.90;;;;;;5051802;28;20052;-48
2022/03/10 07:15:53;;;;;;;20.83;11.88;;;2.50;99.90;;;;;;5053059;28;20041;-48
2022/03/10 07:18:19;;;;;;;21.33;12.65;;;2.60;99.90;;;;;;5053033;28;20044;-49
2022/03/10 07:20:45;;;;;;;21.15;12.10;;;2.70;99.90;;;;;;5051952;28;20067;-48
2022/03/10 07:23:11;;;;;;;20.95;12.75;;;2.80;99.90;;;;;;5051775;28;20056;-48
2022/03/10 07:25:37;;;;;;;20.35;11.75;;;2.90;99.90;;;;;;5051938;28;20029;-51
2022/03/10 07:28:02;;;;;;;18.10;10.70;;;2.90;99.90;;;;;;5052139;28;20055;-49
2022/03/10 07:30:28;;;;;;;20.67;13.23;;;3.00;99.90;;;;;;5051932;28;20052;-53
2022/03/10 07:32:54;;;;;;;19.77;11.43;;;3.10;99.90;;;;;;5051922;28;20049;-50
2022/03/10 07:35:19;;;;;;;20.48;11.70;;;3.10;99.90;;;;;;5051909;28;20487;-52
2022/03/10 07:37:46;;;;;;;20.08;11.65;;;3.20;99.90;;;;;;5051774;28;20448;-53
2022/03/10 07:40:13;;;;;;;21.15;12.13;;;3.30;99.90;;;;;;5051786;28;20080;-50
2022/03/10 07:42:38;;;;;;;21.55;12.15;;;3.40;99.90;;;;;;5050347;28;20047;-53
2022/03/10 07:45:04;;;;;;;21.17;12.07;;;3.50;99.90;;;;;;5051903;28;20036;-54
2022/03/10 07:47:30;;;;;;;21.15;12.95;;;3.50;99.90;;;;;;5051587;28;20040;-50
2022/03/10 07:49:57;;;;;;;21.77;12.07;;;3.60;99.90;;;;;;5051704;28;20071;-52
2022/03/10 07:52:23;;;;;;;20.02;11.75;;;3.70;99.90;;;;;;5051740;28;20041;-49
2022/03/10 07:54:49;;;;;;;20.50;12.10;;;3.80;99.90;;;;;;5051145;28;20052;-53
2022/03/10 07:57:14;;;;;;;19.73;11.60;;;3.90;99.90;;;;;;5051583;28;20075;-51
2022/03/10 07:59:40;;;;;;;22.60;11.88;;;4.00;99.90;;;;;;5051639;28;20041;-51
2022/03/10 08:02:06;;;;;;;22.52;12.68;;;4.10;99.90;;;;;;5051497;28;20094;-49
2022/03/10 08:04:32;;;;;;;21.48;12.55;;;4.20;99.90;;;;;;5054253;28;20466;-50
2022/03/10 08:06:58;;;;;;;20.08;11.90;;;4.20;99.90;;;;;;5051251;28;20041;-50
2022/03/10 08:09:23;;;;;;;20.98;12.63;;;4.30;99.90;;;;;;5050977;28;20051;-54
2022/03/10 08:11:49;;;;;;;21.38;12.98;;;4.40;99.90;;;;;;5051492;28;20044;-54
2022/03/10 08:14:15;;;;;;;23.75;12.25;;;4.50;99.90;;;;;;5051266;28;20044;-50
2022/03/10 08:16:40;;;;;;;19.35;11.43;;;4.50;99.90;;;;;;5051308;28;20485;-50
2022/03/10 08:19:09;;;;;;;21.38;12.27;;;4.60;99.90;;;;;;5061224;28;20040;-49
2022/03/10 08:21:34;;;;;;;21.23;13.15;;;4.80;99.90;;;;;;5058284;28;20053;-53
2022/03/10 08:24:00;;;;;;;20.20;12.77;;;4.80;99.90;;;;;;5065750;28;20040;-49
2022/03/10 08:26:26;;;;;;;20.55;11.70;;;4.90;99.90;;;;;;5065775;28;20029;-51
2022/03/10 08:28:53;;;;;;;20.70;11.57;;;5.10;99.90;;;;;;5060313;28;20032;-51
2022/03/10 08:31:20;;;;;;;24.05;12.55;;;5.10;99.90;;;;;;5053762;28;20376;-49
2022/03/10 08:33:46;;;;;;;21.50;12.48;;;5.20;99.90;;;;;;5051273;28;20393;-53
2022/03/10 08:36:13;;;;;;;19.05;11.18;;;5.30;99.90;;;;;;5051213;28;20037;-51
2022/03/10 08:38:39;;;;;;;19.75;12.07;;;5.30;99.90;;;;;;5051153;28;20120;-51
2022/03/10 08:41:04;;;;;;;18.13;11.57;;;5.50;99.90;;;;;;5051253;28;20175;-52
2022/03/10 08:43:31;;;;;;;19.52;13.40;;;5.50;99.90;;;;;;5051085;28;20043;-51
2022/03/10 08:45:57;;;;;;;21.38;12.48;;;5.60;99.90;;;;;;5050986;28;20139;-52
2022/03/10 08:48:23;;;;;;;21.60;11.93;;;5.70;99.90;;;;;;5051182;28;20362;-49
2022/03/10 08:50:49;;;;;;;19.58;12.60;;;5.70;99.90;;;;;;5050960;28;20056;-51
2022/03/10 08:53:15;;;;;;;21.45;12.80;;;5.80;99.90;;;;;;5050963;28;20448;-50
2022/03/10 08:55:41;;;;;;;20.30;12.77;;;5.90;99.90;;;;;;5050788;28;20048;-50
2022/03/10 08:58:06;;;;;;;20.67;12.65;;;6.00;99.90;;;;;;5050846;28;20036;-53
2022/03/10 09:00:33;;;;;;;20.80;12.18;;;6.00;99.90;;;;;;5049476;28;20037;-50
2022/03/10 09:02:59;;;;;;;23.92;13.27;;;6.10;99.90;;;;;;5050965;28;20033;-49
2022/03/10 09:05:25;;;;;;;19.85;12.68;;;6.20;99.90;;;;;;5054675;28;20053;-50
2022/03/10 09:07:51;;;;;;;20.75;12.85;;;6.30;99.90;;;;;;5053695;28;20060;-53
2022/03/10 09:10:17;;;;;;;19.98;12.27;;;6.40;99.90;;;;;;5054639;28;20436;-51
2022/03/10 09:12:43;;;;;;;23.02;12.57;;;6.50;99.90;;;;;;5054110;28;20076;-53
2022/03/10 09:15:10;;;;;;;19.08;11.85;;;6.70;99.90;;;;;;5055305;28;20052;-53
2022/03/10 09:17:37;;;;;;;19.48;12.65;;;6.80;99.90;;;;;;5055170;28;20032;-51
2022/03/10 09:20:07;;;;;;;18.23;11.95;;;6.90;99.90;;;;;;5054972;28;20068;-51
2022/03/10 09:22:33;;;;;;;23.10;13.15;;;7.00;99.90;;;;;;5055116;28;20041;-53
2022/03/10 09:25:02;;;;;;;20.83;12.02;;;7.10;99.90;;;;;;5055134;28;20102;-53
2022/03/10 09:27:29;;;;;;;18.77;12.68;;;7.30;99.90;;;;;;5055303;28;20044;-53
2022/03/10 09:29:54;;;;;;;19.95;11.65;;;7.30;99.90;;;;;;5054915;28;20053;-53
2022/03/10 09:32:20;;;;;;;21.35;13.05;;;7.40;99.90;;;;;;5054830;28;20111;-53
2022/03/10 09:34:46;;;;;;;21.38;13.57;;;7.40;99.90;;;;;;5055047;28;20060;-52
2022/03/10 09:37:12;;;;;;;18.48;12.10;;;7.50;99.90;;;;;;5055206;28;20048;-51
2022/03/10 09:39:38;;;;;;;19.27;12.27;;;7.60;99.90;;;;;;5055143;28;20385;-49
2022/03/10 09:42:05;;;;;;;21.15;12.93;;;7.70;99.90;;;;;;5055017;28;20033;-51
2022/03/10 09:44:33;;;;;;;22.40;13.60;;;7.80;99.90;;;;;;5054992;28;20040;-55
2022/03/10 09:47:03;;;;;;;23.20;13.73;;;8.00;99.50;;;;;;5054829;28;20033;-51
2022/03/10 09:49:33;;;;;;;20.15;13.35;;;8.00;99.90;;;;;;5053200;28;20123;-51
2022/03/10 09:51:59;;;;;;;19.73;12.45;;;8.10;99.90;;;;;;5063390;28;20037;-50
2022/03/10 09:54:24;;;;;;;20.73;12.77;;;8.20;99.80;;;;;;5064173;28;20032;-55
2022/03/10 09:56:51;;;;;;;23.02;12.30;;;8.30;99.90;;;;;;5065065;28;20489;-54
2022/03/10 09:59:20;;;;;;;20.02;12.50;;;8.40;99.90;;;;;;5063070;28;20033;-53
2022/03/10 10:01:46;;;;;;;22.77;13.02;;;8.50;99.90;;;;;;5061461;28;20041;-54
2022/03/10 10:04:11;;;;;;;23.88;12.80;;;8.50;99.60;;;;;;5058520;28;20388;-51
2022/03/10 10:07:03;;;;;;;22.40;13.85;;;8.60;99.30;;;;;;5054551;28;20545;-50
2022/03/10 10:09:47;;;;;;;20.42;13.10;;;8.70;97.40;;;;;;5057220;28;20447;-50
2022/03/10 10:12:14;;;;;;;20.35;12.70;;;8.80;97.80;;;;;;5054543;28;20387;-50
2022/03/10 10:14:43;;;;;;;21.73;12.45;;;8.80;97.20;;;;;;5054346;28;20037;-50
2022/03/10 10:17:09;;;;;;;24.77;13.43;;;8.90;97.10;;;;;;5054016;28;20362;-50
2022/03/10 10:19:36;;;;;;;22.55;13.15;;;9.00;97.30;;;;;;5054065;28;20049;-52
2022/03/10 10:22:15;;;;;;;20.40;13.05;;;9.10;96.80;;;;;;5053953;28;20053;-50
2022/03/10 10:24:54;;;;;;;22.35;13.82;;;9.20;96.70;;;;;;5053935;28;20048;-51
2022/03/10 10:27:23;;;;;;;24.40;14.10;;;9.30;95.60;;;;;;5054030;28;20371;-50
2022/03/10 10:29:57;;;;;;;23.40;13.93;;;9.40;96.10;;;;;;5052486;28;20087;-51
2022/03/10 10:32:44;;;;;;;20.92;13.48;;;9.50;94.90;;;;;;5053941;28;20081;-53
2022/03/10 10:35:12;;;;;;;20.33;12.68;;;9.50;94.70;;;;;;5054182;28;20040;-54
2022/03/10 10:37:39;;;;;;;22.60;14.38;;;9.60;94.50;;;;;;5054094;28;20045;-52
2022/03/10 10:40:07;;;;;;;22.40;13.05;;;9.80;94.00;;;;;;5052417;28;20048;-54
2022/03/10 10:42:35;;;;;;;22.65;14.38;;;9.80;93.00;;;;;;5052714;28;20059;-50
2022/03/10 10:45:02;;;;;;;20.23;13.65;;;9.90;93.10;;;;;;5053597;28;20098;-52
2022/03/10 10:47:28;;;;;;;22.23;13.18;;;10.00;93.70;;;;;;5053761;28;20116;-52
2022/03/10 10:50:00;;;;;;;23.30;14.57;;;10.00;93.50;;;;;;5053883;28;20436;-54
2022/03/10 10:52:39;;;;;;;19.15;12.25;;;10.20;93.40;;;;;;5052317;28;20045;-53
2022/03/10 10:55:06;;;;;;;20.90;12.93;;;10.30;91.80;;;;;;5053245;28;20822;-53
2022/03/10 10:57:36;;;;;;;22.92;13.50;;;10.30;93.20;;;;;;5053655;28;20044;-55
2022/03/10 11:00:11;;;;;;;25.20;15.88;;;10.40;92.30;;;;;;5053441;28;20397;-53
2022/03/10 11:02:41;;;;;;;23.27;14.38;;;10.50;91.80;;;;;;5052123;28;20444;-50
2022/03/10 11:05:08;;;;;;;22.63;13.70;;;10.50;90.30;;;;;;5057461;28;20037;-53
2022/03/10 11:07:35;;;;;;;21.85;14.45;;;10.60;90.50;;;;;;5052889;28;20041;-51
2022/03/10 11:10:03;;;;;;;24.05;14.60;;;10.60;90.30;;;;;;5053456;28;20044;-52
2022/03/10 11:12:29;;;;;;;22.20;14.82;;;10.60;89.60;;;;;;5052243;28;20083;-53
2022/03/10 11:14:55;;;;;;;22.15;14.13;;;10.60;90.80;;;;;;5053022;28;20432;-53
2022/03/10 11:17:21;;;;;;;24.77;14.45;;;10.70;89.40;;;;;;5053077;28;20509;-52
2022/03/10 11:19:53;;;;;;;24.75;15.27;;;10.70;89.00;;;;;;5052322;28;20048;-50
2022/03/10 11:22:47;;;;;;;24.23;15.48;;;10.90;88.50;;;;;;5053138;28;20766;-50
2022/03/10 11:25:38;;;;;;;25.30;15.07;;;10.90;84.60;;;;;;5052672;28;20511;-53
2022/03/10 11:28:28;;;;;;;22.23;13.90;;;11.20;88.00;;;;;;5053110;28;20808;-49
2022/03/10 11:30:56;;;;;;;21.95;14.30;;;11.30;85.90;;;;;;5052323;28;20037;-51
2022/03/10 11:33:32;;;;;;;24.30;14.77;;;11.40;86.40;;;;;;5052775;28;20036;-51
2022/03/10 11:35:58;;;;;;;24.25;15.13;;;11.50;85.10;;;;;;5052907;28;20037;-51
2022/03/10 11:38:50;;;;;;;27.27;15.88;;;11.50;86.90;;;;;;5052570;28;20133;-52
2022/03/10 11:41:15;;;;;;;22.80;14.93;;;11.60;82.60;;;;;;5052338;28;20124;-50
2022/03/10 11:43:53;;;;;;;24.17;14.30;;;11.70;83.00;;;;;;5052058;28;20124;-49
2022/03/10 11:46:24;;;;;;;24.55;14.70;;;12.00;83.10;;;;;;5052471;28;20052;-52
2022/03/10 11:49:04;;;;;;;21.23;14.27;;;12.00;83.00;;;;;;5052548;28;20051;-51
2022/03/10 11:51:46;;;;;;;21.67;13.70;;;12.00;77.90;;;;;;5051317;28;20052;-52
2022/03/10 11:54:16;;;;;;;24.40;15.70;;;12.10;78.60;;;;;;5052565;28;20049;-50
2022/03/10 11:56:44;;;;;;;22.80;14.95;;;12.00;77.80;;;;;;5053066;28;20080;-52
2022/03/10 11:59:22;;;;;;;21.88;13.60;;;12.10;76.90;;;;;;5063589;28;20083;-51
2022/03/10 12:01:48;;;;;;;22.77;13.48;;;12.30;77.40;;;;;;5061870;28;20037;-54
2022/03/10 12:04:17;;;;;;;23.13;14.02;;;12.40;76.30;;;;;;5063209;28;20575;-52
2022/03/10 12:06:56;;;;;;;23.70;14.55;;;12.40;72.70;;;;;;5052010;28;20033;-54
2022/03/10 12:09:26;;;;;;;23.83;14.02;;;12.50;72.60;;;;;;5051677;28;20037;-54
2022/03/10 12:11:52;;;;;;;23.13;14.02;;;12.60;76.50;;;;;;5052319;28;20100;-54
2022/03/10 12:14:26;;;;;;;23.52;14.55;;;12.70;76.10;;;;;;5051959;28;20037;-55
2022/03/10 12:16:52;;;;;;;19.55;13.68;;;12.70;71.90;;;;;;5051992;28;20508;-52
2022/03/10 12:19:18;;;;;;;24.73;15.23;;;12.80;74.90;;;;;;5051985;28;20036;-54
2022/03/10 12:21:44;;;;;;;22.38;15.10;;;12.80;74.00;;;;;;5051359;28;20503;-50
2022/03/10 12:24:13;;;;;;;22.23;13.93;;;12.80;72.30;;;;;;5050319;28;20059;-50
2022/03/10 12:26:43;;;;;;;22.92;14.13;;;12.90;73.40;;;;;;5051334;28;20029;-51
2022/03/10 12:29:13;;;;;;;22.38;14.60;;;13.00;72.00;;;;;;5051455;28;20045;-55
2022/03/10 12:31:41;;;;;;;27.25;15.82;;;13.00;69.10;;;;;;5051711;28;20055;-54
2022/03/10 12:34:14;;;;;;;27.58;16.13;;;13.00;70.00;;;;;;5052082;28;20098;-53
2022/03/10 12:36:42;;;;;;;24.58;15.45;;;13.10;72.90;;;;;;5051567;28;20041;-52
2022/03/10 12:39:13;;;;;;;23.23;15.27;;;13.20;72.90;;;;;;5051651;28;20048;-51
2022/03/10 12:41:48;;;;;;;23.50;16.40;;;13.20;71.00;;;;;;5052644;28;20076;-51
2022/03/10 12:44:18;;;;;;;23.45;14.38;;;13.10;69.40;;;;;;5055376;28;20075;-51